Time;durP1;ratioP1;P1;durP2;ratioP2;P2;SDS_P1;SDS_P2;PMS_P1;PMS_P2;Temp;Humidity;BMP_temperature;BMP_pressure;BME280_temperature;BME280_humidity;BME280_pressure;Samples;Min_cycle;Max_cycle;Signal;HPM_P1;HPM_P2
2021/01/01 00:00:45;;;;;;;;;43.25;39.25;;;;;;;;4913810;29;11549;-81
2021/01/01 00:03:13;;;;;;;;;43.67;40.33;;;;;;;;4932592;28;11640;-78
2021/01/01 00:05:41;;;;;;;;;54.67;46.33;;;;;;;;4914531;28;11613;-83
2021/01/01 00:08:08;;;;;;;;;52.67;45.00;;;;;;;;4932484;28;8885;-83
2021/01/01 00:10:35;;;;;;;;;49.00;44.00;;;;;;;;4925476;28;11645;-83
2021/01/01 00:13:01;;;;;;;;;55.00;49.00;;;;;;;;4926938;28;11687;-83
2021/01/01 00:15:29;;;;;;;;;61.33;51.00;;;;;;;;4934694;28;8959;-84
2021/01/01 00:17:56;;;;;;;;;55.33;46.67;;;;;;;;4932174;28;8864;-84
2021/01/01 00:20:23;;;;;;;;;61.00;50.00;;;;;;;;4943247;28;8879;-84
2021/01/01 00:22:50;;;;;;;;;61.00;50.33;;;;;;;;4931773;28;8901;-84
2021/01/01 00:25:17;;;;;;;;;55.67;47.67;;;;;;;;4930863;28;8869;-82
2021/01/01 00:27:44;;;;;;;;;52.00;47.00;;;;;;;;4939263;28;8871;-83
2021/01/01 00:30:12;;;;;;;;;45.33;41.33;;;;;;;;4932858;28;9616;-82
2021/01/01 00:32:41;;;;;;;;;45.00;35.67;;;;;;;;4937242;28;11720;-82
2021/01/01 00:35:09;;;;;;;;;48.50;35.50;;;;;;;;4926176;28;11646;-82
2021/01/01 00:37:37;;;;;;;;;28.75;27.50;;;;;;;;4914503;28;11568;-84
2021/01/01 00:40:06;;;;;;;;;28.75;23.75;;;;;;;;4925233;28;11545;-82
2021/01/01 00:42:35;;;;;;;;;26.75;22.75;;;;;;;;4926787;28;11655;-83
2021/01/01 00:45:03;;;;;;;;;27.50;22.25;;;;;;;;4930905;29;11562;-83
2021/01/01 00:47:30;;;;;;;;;23.00;21.00;;;;;;;;4932373;28;12485;-83
2021/01/01 00:49:59;;;;;;;;;26.50;21.25;;;;;;;;4915478;28;11612;-81
2021/01/01 00:52:27;;;;;;;;;39.50;32.50;;;;;;;;4926658;28;11636;-83
2021/01/01 00:54:55;;;;;;;;;41.00;33.50;;;;;;;;4929129;28;11715;-83
2021/01/01 00:57:22;;;;;;;;;31.75;30.75;;;;;;;;4936617;28;11564;-85
2021/01/01 00:59:49;;;;;;;;;30.00;29.50;;;;;;;;4949074;28;11592;-87
2021/01/01 01:02:16;;;;;;;;;37.50;34.00;;;;;;;;4928815;28;11526;-83
2021/01/01 01:04:43;;;;;;;;;35.25;29.25;;;;;;;;4951021;28;11719;-83
2021/01/01 01:07:10;;;;;;;;;38.00;31.00;;;;;;;;4950211;28;11652;-85
2021/01/01 01:09:37;;;;;;;;;30.75;27.00;;;;;;;;4944014;28;11641;-83
2021/01/01 01:12:05;;;;;;;;;30.25;26.25;;;;;;;;4948016;28;11581;-82
2021/01/01 01:14:32;;;;;;;;;31.25;29.50;;;;;;;;4941874;28;11756;-84
2021/01/01 01:16:59;;;;;;;;;32.00;25.50;;;;;;;;4946213;28;11673;-84
2021/01/01 01:19:27;;;;;;;;;31.75;26.50;;;;;;;;4941316;28;11613;-84
2021/01/01 01:21:54;;;;;;;;;38.75;29.75;;;;;;;;4942580;28;12433;-83
2021/01/01 01:24:21;;;;;;;;;33.50;22.50;;;;;;;;4950660;28;11581;-87
2021/01/01 01:26:48;;;;;;;;;32.75;29.25;;;;;;;;4928645;28;11704;-86
2021/01/01 01:29:16;;;;;;;;;24.50;23.00;;;;;;;;4947648;28;11566;-87
2021/01/01 01:31:43;;;;;;;;;25.25;22.75;;;;;;;;4941216;28;11514;-85
2021/01/01 01:34:10;;;;;;;;;25.25;23.50;;;;;;;;4950825;28;11623;-86
2021/01/01 01:36:37;;;;;;;;;32.75;24.75;;;;;;;;4945785;28;11603;-87
2021/01/01 01:39:04;;;;;;;;;24.00;21.75;;;;;;;;4952263;28;11759;-87
2021/01/01 01:41:31;;;;;;;;;30.50;23.00;;;;;;;;4931596;28;11598;-88
2021/01/01 01:43:59;;;;;;;;;22.50;22.50;;;;;;;;4945503;28;11736;-88
2021/01/01 01:46:39;;;;;;;;;24.75;18.25;;;;;;;;4914536;29;11693;-90
2021/01/01 01:49:06;;;;;;;;;24.50;19.50;;;;;;;;4943367;28;11606;-90
2021/01/01 01:51:34;;;;;;;;;26.75;20.25;;;;;;;;4931495;28;11653;-91
2021/01/01 01:54:01;;;;;;;;;28.75;28.75;;;;;;;;4943786;28;11602;-96
2021/01/01 01:56:29;;;;;;;;;22.75;19.00;;;;;;;;4954010;28;11604;-92
2021/01/01 01:58:56;;;;;;;;;26.00;21.00;;;;;;;;4943925;28;11599;-90
2021/01/01 02:01:23;;;;;;;;;28.25;23.00;;;;;;;;4949595;28;11571;-82
2021/01/01 02:03:51;;;;;;;;;29.25;24.00;;;;;;;;4946583;28;11600;-85
2021/01/01 02:06:18;;;;;;;;;33.25;24.00;;;;;;;;4907574;29;11620;-85
2021/01/01 02:08:44;;;;;;;;;31.00;24.75;;;;;;;;4947103;28;11535;-87
2021/01/01 02:11:12;;;;;;;;;30.00;26.00;;;;;;;;4944288;28;11643;-87
2021/01/01 02:13:39;;;;;;;;;27.25;25.75;;;;;;;;4950809;28;11605;-84
2021/01/01 02:16:07;;;;;;;;;26.00;22.75;;;;;;;;4943718;28;11629;-88
2021/01/01 02:18:39;;;;;;;;;32.00;28.25;;;;;;;;4944116;28;11614;-87
2021/01/01 02:21:08;;;;;;;;;25.67;22.00;;;;;;;;4944085;28;12329;-89
2021/01/01 02:23:37;;;;;;;;;25.67;25.67;;;;;;;;4941831;28;11630;-89
2021/01/01 02:26:04;;;;;;;;;30.00;30.00;;;;;;;;4945579;28;11643;-89
2021/01/01 02:28:31;;;;;;;;;22.67;22.67;;;;;;;;4943341;28;11618;-86
2021/01/01 02:30:58;;;;;;;;;31.33;26.33;;;;;;;;4950789;28;11562;-88
2021/01/01 02:33:25;;;;;;;;;28.33;28.33;;;;;;;;4950115;28;12388;-88
2021/01/01 02:35:52;;;;;;;;;24.00;24.00;;;;;;;;4952692;28;11673;-89
2021/01/01 02:38:19;;;;;;;;;28.67;27.33;;;;;;;;4943862;28;11599;-85
2021/01/01 02:40:47;;;;;;;;;26.33;26.33;;;;;;;;4926744;29;11624;-84
2021/01/01 02:43:14;;;;;;;;;27.33;26.33;;;;;;;;4943431;28;11618;-85
2021/01/01 02:45:41;;;;;;;;;25.67;24.00;;;;;;;;4958581;28;11595;-85
2021/01/01 02:48:13;;;;;;;;;20.00;20.00;;;;;;;;4948973;28;11637;-86
2021/01/01 02:50:41;;;;;;;;;24.00;24.00;;;;;;;;4948851;28;11606;-87
2021/01/01 02:53:08;;;;;;;;;28.00;27.67;;;;;;;;4937882;28;11626;-87
2021/01/01 02:55:36;;;;;;;;;21.00;21.00;;;;;;;;4950350;28;11593;-88
2021/01/01 02:58:05;;;;;;;;;28.00;28.00;;;;;;;;4940855;28;11642;-85
2021/01/01 03:00:33;;;;;;;;;26.33;26.33;;;;;;;;4945773;28;11538;-86
2021/01/01 03:03:00;;;;;;;;;28.00;28.00;;;;;;;;4949598;28;11632;-85
2021/01/01 03:05:27;;;;;;;;;27.50;27.50;;;;;;;;4947615;28;11577;-86
2021/01/01 03:07:54;;;;;;;;;37.50;25.50;;;;;;;;4950052;28;11583;-84
2021/01/01 03:10:21;;;;;;;;;18.50;15.75;;;;;;;;4946596;28;11615;-84
2021/01/01 03:12:48;;;;;;;;;28.25;24.25;;;;;;;;4943567;28;11589;-84
2021/01/01 03:15:16;;;;;;;;;27.00;25.00;;;;;;;;4945666;28;11597;-84
2021/01/01 03:17:43;;;;;;;;;29.00;26.75;;;;;;;;4954847;28;11627;-85
2021/01/01 03:20:12;;;;;;;;;31.50;24.00;;;;;;;;4946239;28;11590;-84
2021/01/01 03:22:39;;;;;;;;;18.00;18.00;;;;;;;;4945767;28;11616;-89
2021/01/01 03:25:07;;;;;;;;;25.50;19.00;;;;;;;;4945818;28;11639;-90
2021/01/01 03:27:34;;;;;;;;;29.33;27.33;;;;;;;;4947229;28;11629;-89
2021/01/01 03:30:02;;;;;;;;;23.00;22.67;;;;;;;;4945027;28;11650;-88
2021/01/01 03:32:29;;;;;;;;;26.67;26.67;;;;;;;;4939027;28;11564;-89
2021/01/01 03:34:57;;;;;;;;;25.00;24.33;;;;;;;;4946297;28;11588;-93
2021/01/01 03:37:24;;;;;;;;;26.33;26.33;;;;;;;;4940467;28;11620;-88
2021/01/01 03:39:51;;;;;;;;;18.00;18.00;;;;;;;;4931873;28;11579;-94
2021/01/01 03:42:17;;;;;;;;;26.33;24.33;;;;;;;;4932034;28;11703;-91
2021/01/01 03:44:44;;;;;;;;;18.67;18.67;;;;;;;;4948164;28;11627;-94
2021/01/01 03:47:11;;;;;;;;;19.33;19.33;;;;;;;;4949039;28;11618;-92
2021/01/01 03:49:39;;;;;;;;;25.67;24.33;;;;;;;;4946804;28;11655;-91
2021/01/01 03:52:06;;;;;;;;;18.67;18.67;;;;;;;;4921795;28;11568;-88
2021/01/01 03:54:33;;;;;;;;;21.00;21.00;;;;;;;;4964202;28;11625;-86
2021/01/01 03:57:01;;;;;;;;;25.33;25.33;;;;;;;;4944506;28;11596;-87
2021/01/01 03:59:28;;;;;;;;;22.00;21.67;;;;;;;;4944601;28;11719;-87
2021/01/01 04:01:55;;;;;;;;;20.33;20.33;;;;;;;;4944302;28;11553;-86
2021/01/01 04:04:22;;;;;;;;;12.67;7.00;;;;;;;;4954352;28;11629;-87
2021/01/01 04:06:50;;;;;;;;;15.67;15.67;;;;;;;;4948891;28;11550;-86
2021/01/01 04:09:17;;;;;;;;;20.67;20.67;;;;;;;;4954359;28;12448;-88
2021/01/01 04:11:44;;;;;;;;;25.67;25.67;;;;;;;;4932109;28;11689;-86
2021/01/01 04:14:11;;;;;;;;;24.00;24.00;;;;;;;;4929214;28;11582;-91
2021/01/01 04:16:44;;;;;;;;;22.33;21.67;;;;;;;;4944268;28;11623;-92
2021/01/01 04:19:11;;;;;;;;;13.67;13.67;;;;;;;;4945499;28;11675;-86
2021/01/01 04:21:38;;;;;;;;;24.00;21.00;;;;;;;;4927896;28;11643;-88
2021/01/01 04:24:10;;;;;;;;;16.33;16.33;;;;;;;;4945862;28;12360;-88
2021/01/01 04:26:37;;;;;;;;;20.33;20.33;;;;;;;;4944553;28;11625;-93
2021/01/01 04:29:04;;;;;;;;;21.33;21.33;;;;;;;;4947245;28;11628;-92
2021/01/01 04:31:34;;;;;;;;;18.67;18.67;;;;;;;;4915542;28;11539;-91
2021/01/01 04:34:01;;;;;;;;;21.25;21.25;;;;;;;;4944589;28;11621;-94
2021/01/01 04:36:28;;;;;;;;;21.25;19.25;;;;;;;;4952686;28;11553;-90
2021/01/01 04:38:55;;;;;;;;;19.00;17.75;;;;;;;;4929253;28;11643;-91
2021/01/01 04:41:23;;;;;;;;;24.25;22.50;;;;;;;;4947179;28;11602;-91
2021/01/01 04:43:51;;;;;;;;;18.33;18.00;;;;;;;;4945766;28;12999;-91
2021/01/01 04:46:18;;;;;;;;;18.50;17.75;;;;;;;;4949054;28;11626;-92
2021/01/01 04:48:46;;;;;;;;;16.50;16.50;;;;;;;;4933186;28;11628;-91
2021/01/01 04:51:13;;;;;;;;;14.25;14.25;;;;;;;;4927646;28;11594;-87
2021/01/01 04:53:42;;;;;;;;;10.50;10.00;;;;;;;;4947997;28;11622;-88
2021/01/01 04:56:09;;;;;;;;;16.50;16.50;;;;;;;;4937510;28;11552;-89
2021/01/01 04:58:38;;;;;;;;;16.67;16.67;;;;;;;;4953371;28;11604;-87
2021/01/01 05:01:05;;;;;;;;;24.00;23.00;;;;;;;;4951253;28;11530;-89
2021/01/01 05:03:32;;;;;;;;;21.50;20.25;;;;;;;;4946291;28;11587;-88
2021/01/01 05:06:00;;;;;;;;;18.25;17.00;;;;;;;;4944361;28;11585;-91
2021/01/01 05:08:27;;;;;;;;;21.00;21.00;;;;;;;;4950253;28;11606;-91
2021/01/01 05:10:54;;;;;;;;;15.75;15.75;;;;;;;;4930709;28;11616;-92
2021/01/01 05:13:22;;;;;;;;;17.25;17.25;;;;;;;;4942634;28;11586;-92
2021/01/01 05:15:50;;;;;;;;;20.50;19.50;;;;;;;;4942192;28;11701;-92
2021/01/01 05:18:19;;;;;;;;;19.50;16.50;;;;;;;;4926201;28;11611;-92
2021/01/01 05:20:46;;;;;;;;;16.50;16.50;;;;;;;;4946949;28;11618;-89
2021/01/01 05:23:20;;;;;;;;;15.75;15.75;;;;;;;;4946172;28;12381;-92
2021/01/01 05:25:47;;;;;;;;;18.00;18.00;;;;;;;;4946251;28;11603;-90
2021/01/01 05:28:15;;;;;;;;;16.25;15.25;;;;;;;;4928042;28;11683;-91
2021/01/01 05:30:42;;;;;;;;;26.00;18.75;;;;;;;;4943621;28;11575;-91
2021/01/01 05:33:17;;;;;;;;;14.50;13.75;;;;;;;;4950598;28;11611;-88
2021/01/01 05:35:47;;;;;;;;;21.75;19.50;;;;;;;;4943169;28;11622;-88
2021/01/01 05:38:20;;;;;;;;;15.00;12.00;;;;;;;;4939507;28;11670;-89
2021/01/01 05:40:49;;;;;;;;;11.75;10.50;;;;;;;;4944146;28;11502;-86
2021/01/01 05:43:22;;;;;;;;;13.25;13.25;;;;;;;;4950884;28;11587;-85
2021/01/01 05:45:50;;;;;;;;;20.00;13.25;;;;;;;;4946216;28;11611;-89
2021/01/01 05:48:18;;;;;;;;;21.25;13.50;;;;;;;;4950475;28;11532;-90
2021/01/01 05:50:46;;;;;;;;;18.00;17.25;;;;;;;;4948909;28;11545;-90
2021/01/01 05:53:15;;;;;;;;;21.50;18.25;;;;;;;;4949142;28;11617;-86
2021/01/01 05:55:42;;;;;;;;;14.50;12.00;;;;;;;;4945449;28;11638;-88
2021/01/01 05:58:23;;;;;;;;;16.75;15.25;;;;;;;;4946863;28;11559;-88
2021/01/01 06:00:54;;;;;;;;;21.75;17.00;;;;;;;;4937957;28;11592;-84
2021/01/01 06:03:23;;;;;;;;;19.50;15.50;;;;;;;;4948057;28;11538;-84
2021/01/01 06:05:53;;;;;;;;;13.00;13.00;;;;;;;;4942996;28;11559;-84
2021/01/01 06:08:25;;;;;;;;;24.25;19.00;;;;;;;;4948870;28;11627;-83
2021/01/01 06:10:52;;;;;;;;;12.50;10.00;;;;;;;;4948371;28;11641;-83
2021/01/01 06:13:21;;;;;;;;;20.00;18.25;;;;;;;;4946973;28;11660;-84
2021/01/01 06:15:56;;;;;;;;;26.75;18.25;;;;;;;;4925861;29;11585;-83
2021/01/01 06:18:27;;;;;;;;;16.50;14.25;;;;;;;;4945379;28;11602;-86
2021/01/01 06:20:58;;;;;;;;;15.25;11.50;;;;;;;;4948655;28;11600;-84
2021/01/01 06:23:32;;;;;;;;;15.50;14.75;;;;;;;;4944673;28;11596;-83
2021/01/01 06:25:59;;;;;;;;;18.75;17.00;;;;;;;;4956858;28;11589;-84
2021/01/01 06:28:27;;;;;;;;;19.25;15.25;;;;;;;;4940002;28;11609;-86
2021/01/01 06:30:56;;;;;;;;;14.50;14.00;;;;;;;;4948392;28;12277;-85
2021/01/01 06:33:24;;;;;;;;;23.25;18.00;;;;;;;;4947595;28;11661;-86
2021/01/01 06:35:52;;;;;;;;;14.75;10.00;;;;;;;;4945537;28;11609;-89
2021/01/01 06:38:36;;;;;;;;;23.50;22.50;;;;;;;;4952539;28;11599;-90
2021/01/01 06:41:04;;;;;;;;;19.50;18.25;;;;;;;;4949695;28;11617;-88
2021/01/01 06:43:50;;;;;;;;;26.50;19.75;;;;;;;;4947398;28;11612;-91
2021/01/01 06:46:35;;;;;;;;;22.00;17.75;;;;;;;;4949636;28;11671;-90
2021/01/01 06:49:02;;;;;;;;;20.00;20.00;;;;;;;;4924460;28;11676;-90
2021/01/01 06:51:31;;;;;;;;;21.75;17.00;;;;;;;;4947468;28;11594;-90
2021/01/01 06:54:14;;;;;;;;;16.25;16.25;;;;;;;;4946377;28;11625;-91
2021/01/01 06:56:43;;;;;;;;;16.75;16.75;;;;;;;;4947894;28;11634;-88
2021/01/01 06:59:11;;;;;;;;;19.25;16.75;;;;;;;;4948603;28;11649;-87
2021/01/01 07:01:42;;;;;;;;;16.50;11.00;;;;;;;;4953041;28;11518;-86
2021/01/01 07:04:09;;;;;;;;;18.00;16.25;;;;;;;;4952923;28;11537;-87
2021/01/01 07:06:39;;;;;;;;;16.75;13.50;;;;;;;;4947669;28;11636;-87
2021/01/01 07:09:13;;;;;;;;;17.75;16.00;;;;;;;;4935771;28;11599;-88
2021/01/01 07:11:42;;;;;;;;;10.00;8.25;;;;;;;;4942661;28;11628;-87
2021/01/01 07:14:10;;;;;;;;;18.50;14.50;;;;;;;;4951917;28;11556;-86
2021/01/01 07:16:39;;;;;;;;;19.50;16.00;;;;;;;;4934430;28;11613;-88
2021/01/01 07:19:06;;;;;;;;;17.00;14.75;;;;;;;;4950598;28;11577;-87
2021/01/01 07:21:33;;;;;;;;;18.75;14.00;;;;;;;;4949965;28;11587;-87
2021/01/01 07:24:02;;;;;;;;;18.75;13.75;;;;;;;;4933940;28;11703;-87
2021/01/01 07:26:30;;;;;;;;;19.00;19.00;;;;;;;;4945711;28;11662;-90
2021/01/01 07:29:00;;;;;;;;;17.25;13.25;;;;;;;;4945136;28;11594;-88
2021/01/01 07:31:27;;;;;;;;;16.25;13.75;;;;;;;;4945306;28;11495;-86
2021/01/01 07:33:55;;;;;;;;;25.50;22.25;;;;;;;;4929445;28;11538;-88
2021/01/01 07:36:22;;;;;;;;;12.75;12.75;;;;;;;;4936909;28;11605;-89
2021/01/01 07:38:49;;;;;;;;;16.75;16.75;;;;;;;;4952328;28;11591;-87
2021/01/01 07:41:19;;;;;;;;;16.00;16.00;;;;;;;;4944818;28;11605;-88
2021/01/01 07:43:50;;;;;;;;;21.00;14.50;;;;;;;;4954616;28;11643;-87
2021/01/01 07:46:17;;;;;;;;;19.50;16.25;;;;;;;;4927402;28;11625;-89
2021/01/01 07:48:44;;;;;;;;;21.00;16.25;;;;;;;;4946454;28;11634;-87
2021/01/01 07:51:12;;;;;;;;;14.50;14.50;;;;;;;;4945735;28;11623;-88
2021/01/01 07:53:39;;;;;;;;;20.25;17.25;;;;;;;;4949244;28;11620;-88
2021/01/01 07:56:07;;;;;;;;;18.25;15.75;;;;;;;;4950543;28;11713;-88
2021/01/01 07:58:35;;;;;;;;;18.75;18.25;;;;;;;;4950595;28;11630;-90
2021/01/01 08:01:06;;;;;;;;;23.25;21.25;;;;;;;;4948017;28;11527;-88
2021/01/01 08:03:33;;;;;;;;;19.00;16.25;;;;;;;;4948428;28;11627;-85
2021/01/01 08:06:01;;;;;;;;;15.50;15.50;;;;;;;;4949105;28;11648;-79
2021/01/01 08:08:28;;;;;;;;;15.25;15.25;;;;;;;;4949428;28;11610;-76
2021/01/01 08:10:57;;;;;;;;;13.75;12.75;;;;;;;;4946356;28;11615;-81
2021/01/01 08:13:26;;;;;;;;;16.00;13.00;;;;;;;;4946445;28;11641;-85
2021/01/01 08:15:55;;;;;;;;;19.50;16.00;;;;;;;;4946599;28;11781;-82
2021/01/01 08:18:23;;;;;;;;;26.00;21.50;;;;;;;;4932790;28;11606;-80
2021/01/01 08:20:51;;;;;;;;;23.50;20.25;;;;;;;;4945518;28;11617;-82
2021/01/01 08:23:18;;;;;;;;;30.50;18.50;;;;;;;;4946047;28;11620;-80
2021/01/01 08:25:47;;;;;;;;;16.50;14.25;;;;;;;;4945648;28;11612;-80
2021/01/01 08:28:18;;;;;;;;;22.25;19.75;;;;;;;;4946252;28;11605;-83
2021/01/01 08:30:46;;;;;;;;;21.00;15.75;;;;;;;;4945969;28;11638;-81
2021/01/01 08:33:14;;;;;;;;;17.75;17.50;;;;;;;;4945073;28;11702;-83
2021/01/01 08:35:41;;;;;;;;;17.00;17.00;;;;;;;;4930530;28;11589;-83
2021/01/01 08:38:20;;;;;;;;;12.00;11.25;;;;;;;;4950075;28;11693;-77
2021/01/01 08:40:54;;;;;;;;;21.50;19.00;;;;;;;;4946451;28;11583;-81
2021/01/01 08:43:21;;;;;;;;;21.25;17.00;;;;;;;;4942801;28;11602;-78
2021/01/01 08:45:48;;;;;;;;;22.00;20.00;;;;;;;;4945047;28;11561;-80
2021/01/01 08:48:17;;;;;;;;;22.50;21.00;;;;;;;;4951668;28;11603;-79
2021/01/01 08:50:46;;;;;;;;;23.00;23.00;;;;;;;;4949369;28;11649;-78
2021/01/01 08:53:13;;;;;;;;;25.33;25.00;;;;;;;;4945335;28;11586;-77
2021/01/01 08:55:41;;;;;;;;;24.00;24.00;;;;;;;;4926571;28;11651;-78
2021/01/01 08:58:10;;;;;;;;;20.75;20.00;;;;;;;;4928010;28;11630;-78
2021/01/01 09:00:38;;;;;;;;;16.25;16.25;;;;;;;;4948460;28;11537;-85
2021/01/01 09:03:05;;;;;;;;;19.25;17.50;;;;;;;;4945873;28;11693;-82
2021/01/01 09:05:34;;;;;;;;;29.00;23.00;;;;;;;;4945544;28;11578;-79
2021/01/01 09:08:09;;;;;;;;;31.50;19.50;;;;;;;;4955925;28;11585;-70
2021/01/01 09:10:36;;;;;;;;;21.25;21.00;;;;;;;;4947422;28;11643;-72
2021/01/01 09:13:18;;;;;;;;;17.50;17.50;;;;;;;;4951643;28;11531;-70
2021/01/01 09:15:45;;;;;;;;;19.25;16.50;;;;;;;;4927994;28;11645;-69
2021/01/01 09:18:13;;;;;;;;;12.75;12.75;;;;;;;;4944540;28;12274;-71
2021/01/01 09:20:46;;;;;;;;;22.25;22.25;;;;;;;;4928380;28;11600;-70
2021/01/01 09:23:13;;;;;;;;;13.50;13.50;;;;;;;;4947746;28;11672;-69
2021/01/01 09:25:40;;;;;;;;;17.25;15.00;;;;;;;;4949509;28;11680;-70
2021/01/01 09:28:11;;;;;;;;;17.50;15.00;;;;;;;;4946538;28;11562;-70
2021/01/01 09:30:39;;;;;;;;;19.75;17.00;;;;;;;;4955307;28;11488;-70
2021/01/01 09:33:08;;;;;;;;;22.00;16.25;;;;;;;;4946755;28;11640;-69
2021/01/01 09:35:35;;;;;;;;;13.75;13.75;;;;;;;;4947580;28;11595;-70
2021/01/01 09:38:04;;;;;;;;;19.00;12.75;;;;;;;;4948386;28;11592;-68
2021/01/01 09:40:32;;;;;;;;;12.50;9.50;;;;;;;;4945262;28;11625;-68
2021/01/01 09:43:01;;;;;;;;;19.00;14.50;;;;;;;;4944350;28;11691;-72
2021/01/01 09:45:29;;;;;;;;;13.00;13.00;;;;;;;;4931082;28;11541;-73
2021/01/01 09:47:55;;;;;;;;;12.75;9.25;;;;;;;;4943324;28;11595;-71
2021/01/01 09:50:22;;;;;;;;;14.75;14.75;;;;;;;;4943842;28;11516;-72
2021/01/01 09:52:49;;;;;;;;;11.25;11.25;;;;;;;;4933742;28;11575;-73
2021/01/01 09:55:17;;;;;;;;;19.00;11.75;;;;;;;;4947147;28;11647;-73
2021/01/01 09:57:44;;;;;;;;;16.25;14.00;;;;;;;;4957359;28;11538;-70
2021/01/01 10:00:12;;;;;;;;;11.50;11.50;;;;;;;;4948267;28;11605;-75
2021/01/01 10:02:39;;;;;;;;;20.25;20.25;;;;;;;;4954022;28;11575;-71
2021/01/01 10:05:08;;;;;;;;;20.50;16.75;;;;;;;;4951734;28;11586;-72
2021/01/01 10:07:35;;;;;;;;;14.00;13.00;;;;;;;;4954495;28;12436;-70
2021/01/01 10:10:02;;;;;;;;;14.00;14.00;;;;;;;;4944755;28;11575;-69
2021/01/01 10:12:30;;;;;;;;;22.00;17.75;;;;;;;;4948258;28;12334;-71
2021/01/01 10:14:58;;;;;;;;;16.00;15.00;;;;;;;;4948509;28;11581;-72
2021/01/01 10:17:25;;;;;;;;;14.50;14.50;;;;;;;;4949258;28;11604;-71
2021/01/01 10:19:52;;;;;;;;;28.00;28.00;;;;;;;;4948916;28;11598;-72
2021/01/01 10:22:19;;;;;;;;;19.25;17.75;;;;;;;;4951340;28;11615;-72
2021/01/01 10:24:46;;;;;;;;;12.00;12.00;;;;;;;;4948326;28;11617;-72
2021/01/01 10:27:14;;;;;;;;;17.75;15.50;;;;;;;;4931982;28;11580;-70
2021/01/01 10:29:42;;;;;;;;;20.50;14.00;;;;;;;;4954399;28;11556;-70
2021/01/01 10:32:10;;;;;;;;;15.75;14.75;;;;;;;;4950519;28;11650;-71
2021/01/01 10:34:37;;;;;;;;;12.50;12.50;;;;;;;;4949338;28;11637;-71
2021/01/01 10:37:04;;;;;;;;;11.25;11.25;;;;;;;;4950760;28;11609;-72
2021/01/01 10:39:31;;;;;;;;;22.25;14.00;;;;;;;;4949228;28;11649;-73
2021/01/01 10:41:58;;;;;;;;;14.50;14.50;;;;;;;;4950602;28;11602;-71
2021/01/01 10:44:24;;;;;;;;;21.25;15.75;;;;;;;;4947974;28;11624;-73
2021/01/01 10:46:53;;;;;;;;;17.25;14.00;;;;;;;;4947208;28;11580;-71
2021/01/01 10:49:21;;;;;;;;;7.00;4.00;;;;;;;;4939580;28;11621;-72
2021/01/01 10:51:48;;;;;;;;;15.00;12.25;;;;;;;;4947952;28;11548;-72
2021/01/01 10:54:15;;;;;;;;;18.00;18.00;;;;;;;;4949770;28;11547;-73
2021/01/01 10:56:42;;;;;;;;;15.00;14.75;;;;;;;;4946293;28;11595;-71
2021/01/01 10:59:09;;;;;;;;;19.50;19.50;;;;;;;;4950846;28;12386;-72
2021/01/01 11:01:35;;;;;;;;;10.75;10.75;;;;;;;;4954369;28;11525;-72
2021/01/01 11:04:03;;;;;;;;;21.00;18.25;;;;;;;;4949142;28;11693;-73
2021/01/01 11:06:30;;;;;;;;;18.50;17.00;;;;;;;;4945538;28;11600;-71
2021/01/01 11:08:57;;;;;;;;;10.75;10.00;;;;;;;;4945721;28;11588;-70
2021/01/01 11:11:24;;;;;;;;;11.50;9.00;;;;;;;;4947389;28;11599;-71
2021/01/01 11:13:55;;;;;;;;;9.00;9.00;;;;;;;;4947001;28;11642;-70
2021/01/01 12:22:39;;;;;;;;;18.50;15.50;;;;;;;;4946535;28;11714;-71
2021/01/01 12:25:08;;;;;;;;;21.75;20.75;;;;;;;;4945524;28;11615;-71
2021/01/01 12:27:36;;;;;;;;;17.50;16.00;;;;;;;;4945789;28;11580;-72
2021/01/01 12:30:04;;;;;;;;;17.75;17.00;;;;;;;;4944568;28;11574;-73
2021/01/01 12:32:32;;;;;;;;;18.00;15.75;;;;;;;;4944635;28;11598;-71
2021/01/01 12:34:59;;;;;;;;;11.00;11.00;;;;;;;;4943150;28;11606;-72
2021/01/01 12:37:26;;;;;;;;;9.00;9.00;;;;;;;;4943797;28;11573;-72
2021/01/01 12:39:53;;;;;;;;;24.75;23.00;;;;;;;;4945500;28;11629;-72
2021/01/01 12:42:22;;;;;;;;;18.50;18.50;;;;;;;;4946644;28;11597;-71
2021/01/01 12:44:49;;;;;;;;;23.00;18.75;;;;;;;;4944162;28;11600;-73
2021/01/01 12:47:16;;;;;;;;;24.50;18.00;;;;;;;;4930869;28;11568;-71
2021/01/01 12:49:44;;;;;;;;;17.75;16.50;;;;;;;;4943859;28;11655;-71
2021/01/01 12:52:11;;;;;;;;;13.00;13.00;;;;;;;;4947312;28;11588;-71
2021/01/01 12:54:37;;;;;;;;;22.75;18.50;;;;;;;;4944564;28;11612;-72
2021/01/01 12:57:05;;;;;;;;;20.50;19.50;;;;;;;;4944229;28;11617;-73
2021/01/01 12:59:33;;;;;;;;;21.75;19.00;;;;;;;;4944637;28;11696;-72
2021/01/01 13:02:00;;;;;;;;;21.00;19.25;;;;;;;;4944040;28;12334;-72
2021/01/01 13:04:26;;;;;;;;;8.00;8.00;;;;;;;;4922123;28;11714;-72
2021/01/01 13:06:53;;;;;;;;;16.00;12.00;;;;;;;;4944145;28;11581;-70
2021/01/01 13:09:20;;;;;;;;;26.00;23.75;;;;;;;;4947188;28;11584;-71
2021/01/01 13:11:47;;;;;;;;;34.25;29.25;;;;;;;;4945397;28;11728;-70
2021/01/01 13:14:14;;;;;;;;;14.00;12.00;;;;;;;;4944106;28;11605;-72
2021/01/01 13:16:43;;;;;;;;;15.25;13.75;;;;;;;;4943182;28;11620;-71
2021/01/01 13:19:10;;;;;;;;;10.50;10.50;;;;;;;;4946573;28;11617;-73
2021/01/01 13:21:38;;;;;;;;;12.50;12.00;;;;;;;;4948579;28;11508;-71
2021/01/01 13:24:06;;;;;;;;;10.00;10.00;;;;;;;;4935153;28;11539;-73
2021/01/01 13:26:34;;;;;;;;;66.25;49.00;;;;;;;;4945361;28;11550;-70
2021/01/01 13:29:03;;;;;;;;;38.00;35.25;;;;;;;;4944399;28;11691;-70
2021/01/01 13:31:39;;;;;;;;;13.00;12.25;;;;;;;;4943924;28;11712;-71
2021/01/01 13:34:08;;;;;;;;;14.75;14.00;;;;;;;;4943729;28;11659;-71
2021/01/01 13:36:36;;;;;;;;;43.25;36.75;;;;;;;;4949026;28;11631;-71
2021/01/01 13:39:04;;;;;;;;;44.00;40.50;;;;;;;;4947296;28;11759;-71
2021/01/01 13:41:31;;;;;;;;;37.00;33.75;;;;;;;;4939540;28;11592;-70
2021/01/01 13:43:58;;;;;;;;;62.25;45.50;;;;;;;;4942807;28;11620;-70
2021/01/01 13:46:27;;;;;;;;;37.50;33.50;;;;;;;;4949794;28;11621;-69
2021/01/01 13:48:54;;;;;;;;;65.50;47.50;;;;;;;;4943894;28;11605;-72
2021/01/01 13:51:27;;;;;;;;;34.25;28.25;;;;;;;;4949978;28;11613;-70
2021/01/01 13:53:54;;;;;;;;;28.00;26.25;;;;;;;;4951141;28;12434;-73
2021/01/01 13:56:21;;;;;;;;;48.25;41.25;;;;;;;;4948403;28;11657;-74
2021/01/01 13:58:49;;;;;;;;;26.75;26.25;;;;;;;;4943967;28;11623;-71
2021/01/01 14:01:17;;;;;;;;;18.00;18.00;;;;;;;;4942060;28;11547;-72
2021/01/01 14:03:44;;;;;;;;;95.67;75.67;;;;;;;;4942354;28;11590;-73
2021/01/01 14:06:11;;;;;;;;;8.75;8.75;;;;;;;;4941675;28;8866;-74
2021/01/01 14:08:39;;;;;;;;;18.00;18.00;;;;;;;;4948866;28;11628;-73
2021/01/01 14:11:07;;;;;;;;;25.75;22.75;;;;;;;;4957475;28;11602;-72
2021/01/01 14:13:34;;;;;;;;;25.50;19.00;;;;;;;;4938347;28;11630;-71
2021/01/01 14:16:01;;;;;;;;;15.50;15.50;;;;;;;;4938221;28;11617;-72
2021/01/01 14:18:28;;;;;;;;;23.25;18.00;;;;;;;;4938965;28;11589;-71
2021/01/01 14:20:55;;;;;;;;;18.00;16.25;;;;;;;;4943398;28;11597;-73
2021/01/01 14:23:22;;;;;;;;;12.00;12.00;;;;;;;;4958212;28;11593;-73
2021/01/01 14:25:50;;;;;;;;;24.00;21.00;;;;;;;;4945789;28;11589;-70
2021/01/01 14:28:17;;;;;;;;;32.25;32.00;;;;;;;;4942697;28;12344;-73
2021/01/01 14:30:44;;;;;;;;;18.00;13.50;;;;;;;;4942569;28;12424;-73
2021/01/01 14:33:12;;;;;;;;;17.75;16.50;;;;;;;;4939563;28;12464;-70
2021/01/01 14:35:39;;;;;;;;;18.50;18.25;;;;;;;;4921095;28;11582;-72
2021/01/01 14:38:06;;;;;;;;;12.00;12.00;;;;;;;;4935406;28;11617;-70
2021/01/01 14:40:33;;;;;;;;;9.00;9.00;;;;;;;;4940003;28;11598;-71
2021/01/01 14:43:04;;;;;;;;;12.25;8.25;;;;;;;;4943033;28;11504;-70
2021/01/01 14:45:31;;;;;;;;;15.00;12.00;;;;;;;;4941702;28;11582;-70
2021/01/01 14:47:58;;;;;;;;;14.00;9.50;;;;;;;;4945092;28;11565;-70
2021/01/01 14:50:25;;;;;;;;;10.25;9.25;;;;;;;;4951944;28;11617;-70
2021/01/01 14:52:52;;;;;;;;;10.50;10.25;;;;;;;;4948395;28;11566;-70
2021/01/01 14:55:19;;;;;;;;;12.25;12.25;;;;;;;;4925829;28;11562;-70
2021/01/01 14:57:45;;;;;;;;;15.00;12.50;;;;;;;;4951911;28;11557;-69
2021/01/01 15:00:14;;;;;;;;;14.50;13.00;;;;;;;;4955048;28;12277;-70
2021/01/01 15:02:41;;;;;;;;;26.75;25.25;;;;;;;;4945800;28;11594;-72
2021/01/01 15:05:09;;;;;;;;;13.75;13.75;;;;;;;;4939811;28;11615;-72
2021/01/01 15:07:36;;;;;;;;;12.25;9.75;;;;;;;;4945535;28;12392;-72
2021/01/01 15:10:03;;;;;;;;;15.00;11.25;;;;;;;;4949809;28;11530;-71
2021/01/01 15:12:30;;;;;;;;;13.25;11.50;;;;;;;;4944847;28;11531;-70
2021/01/01 15:14:57;;;;;;;;;10.25;9.50;;;;;;;;4944737;28;11599;-70
2021/01/01 15:17:25;;;;;;;;;14.75;14.50;;;;;;;;4932338;28;11620;-70
2021/01/01 15:19:52;;;;;;;;;25.25;20.75;;;;;;;;4950324;28;11690;-69
2021/01/01 15:22:19;;;;;;;;;18.50;12.25;;;;;;;;4949926;28;11625;-71
2021/01/01 15:24:46;;;;;;;;;12.75;12.50;;;;;;;;4947034;28;11588;-70
2021/01/01 15:27:12;;;;;;;;;11.25;9.00;;;;;;;;4947604;28;11554;-70
2021/01/01 15:29:39;;;;;;;;;11.00;11.00;;;;;;;;4945338;28;11542;-69